Allport, Pennsylvania
Current Conditions -  °F | °C
As of 5:54 PM on Wednesday 22 Oct 2014 (Local Time) from KFIG Reporting Station
Overcast Overcast  
Wind Chill: 41°   Ceiling: 1600
Heat Index: 47°   Visibility: 10mi
Dew Point: 40°   Wind: 14mph
Humidity: 77%   Direction: 350°N
Pressure: 30.1"   Gusts: NA
Location:  40.96°N, 78.2°W
Report Text: KFIG 222154Z AUTO 35012KT 10SM OVC016 08/04 A3010 RMK AO2 SLP199 T00830044
Loading
Personal Weather Stations






























Interactive Weather Map
Tropical Storm Tracking
New forecast layout! Learn more

10-Day Weather Forecast

Advertisements
Track Severe Weather on mobile